sensor_id;sensor_type;location;lat;lon;timestamp;pressure;altitude;pressure_sealevel;temperature;humidity
70968;BME280;58629;48.808;8.820;2023-01-28T00:00:30;97675.41;;;-0.52;88.89
70968;BME280;58629;48.808;8.820;2023-01-28T00:02:55;97676.50;;;-0.53;88.78
70968;BME280;58629;48.808;8.820;2023-01-28T00:05:21;97672.38;;;-0.54;89.23
70968;BME280;58629;48.808;8.820;2023-01-28T00:07:48;97671.63;;;-0.55;88.60
70968;BME280;58629;48.808;8.820;2023-01-28T00:10:14;97670.09;;;-0.56;88.34
70968;BME280;58629;48.808;8.820;2023-01-28T00:15:10;97672.59;;;-0.47;88.29
70968;BME280;58629;48.808;8.820;2023-01-28T00:17:36;97678.91;;;-0.48;87.95
70968;BME280;58629;48.808;8.820;2023-01-28T00:20:02;97676.75;;;-0.46;87.82
70968;BME280;58629;48.808;8.820;2023-01-28T00:22:28;97673.38;;;-0.47;87.88
70968;BME280;58629;48.808;8.820;2023-01-28T00:24:53;97679.91;;;-0.41;88.20
70968;BME280;58629;48.808;8.820;2023-01-28T00:27:20;97680.22;;;-0.42;87.37
70968;BME280;58629;48.808;8.820;2023-01-28T00:29:45;97678.69;;;-0.43;87.76
70968;BME280;58629;48.808;8.820;2023-01-28T00:32:10;97678.25;;;-0.45;88.03
70968;BME280;58629;48.808;8.820;2023-01-28T00:34:36;97680.13;;;-0.46;88.15
70968;BME280;58629;48.808;8.820;2023-01-28T00:37:01;97679.47;;;-0.43;88.25
70968;BME280;58629;48.808;8.820;2023-01-28T00:39:26;97676.84;;;-0.43;87.99
70968;BME280;58629;48.808;8.820;2023-01-28T00:41:53;97678.84;;;-0.40;88.39
70968;BME280;58629;48.808;8.820;2023-01-28T00:44:19;97674.06;;;-0.38;88.68
70968;BME280;58629;48.808;8.820;2023-01-28T00:46:44;97673.31;;;-0.38;87.70
70968;BME280;58629;48.808;8.820;2023-01-28T00:49:09;97668.44;;;-0.40;88.68
70968;BME280;58629;48.808;8.820;2023-01-28T00:51:35;97670.88;;;-0.43;88.15
70968;BME280;58629;48.808;8.820;2023-01-28T00:54:01;97677.63;;;-0.42;89.25
70968;BME280;58629;48.808;8.820;2023-01-28T00:56:26;97672.41;;;-0.42;89.00
70968;BME280;58629;48.808;8.820;2023-01-28T00:58:51;97676.22;;;-0.40;88.84
70968;BME280;58629;48.808;8.820;2023-01-28T01:01:19;97672.09;;;-0.41;87.82
70968;BME280;58629;48.808;8.820;2023-01-28T01:03:46;97672.09;;;-0.41;88.53
70968;BME280;58629;48.808;8.820;2023-01-28T01:06:13;97672.84;;;-0.40;88.52
70968;BME280;58629;48.808;8.820;2023-01-28T01:08:39;97675.47;;;-0.40;89.04
70968;BME280;58629;48.808;8.820;2023-01-28T01:11:09;97672.84;;;-0.40;89.06
70968;BME280;58629;48.808;8.820;2023-01-28T01:13:36;97665.25;;;-0.45;89.11
70968;BME280;58629;48.808;8.820;2023-01-28T01:16:02;97668.63;;;-0.45;89.25
70968;BME280;58629;48.808;8.820;2023-01-28T01:18:28;97670.88;;;-0.43;89.11
70968;BME280;58629;48.808;8.820;2023-01-28T01:20:53;97665.91;;;-0.48;89.01
70968;BME280;58629;48.808;8.820;2023-01-28T01:23:26;97663.75;;;-0.46;89.39
70968;BME280;58629;48.808;8.820;2023-01-28T01:25:51;97670.44;;;-0.45;89.33
70968;BME280;58629;48.808;8.820;2023-01-28T01:28:17;97670.00;;;-0.47;89.00
70968;BME280;58629;48.808;8.820;2023-01-28T01:30:42;97669.38;;;-0.44;89.33
70968;BME280;58629;48.808;8.820;2023-01-28T01:33:07;97669.13;;;-0.51;90.13
70968;BME280;58629;48.808;8.820;2023-01-28T01:35:33;97667.72;;;-0.49;89.88
70968;BME280;58629;48.808;8.820;2023-01-28T01:37:58;97670.00;;;-0.47;89.55
70968;BME280;58629;48.808;8.820;2023-01-28T01:40:23;97677.50;;;-0.46;89.70
70968;BME280;58629;48.808;8.820;2023-01-28T01:42:48;97682.06;;;-0.43;90.00
70968;BME280;58629;48.808;8.820;2023-01-28T01:45:14;97678.25;;;-0.45;89.96
70968;BME280;58629;48.808;8.820;2023-01-28T01:47:58;97682.38;;;-0.44;89.62
70968;BME280;58629;48.808;8.820;2023-01-28T01:50:38;97685.00;;;-0.44;89.46
70968;BME280;58629;48.808;8.820;2023-01-28T01:53:15;97689.31;;;-0.48;89.33
70968;BME280;58629;48.808;8.820;2023-01-28T01:55:44;97684.09;;;-0.48;90.28
70968;BME280;58629;48.808;8.820;2023-01-28T01:58:13;97689.88;;;-0.43;90.44
70968;BME280;58629;48.808;8.820;2023-01-28T02:00:40;97697.22;;;-0.45;89.80
70968;BME280;58629;48.808;8.820;2023-01-28T02:03:06;97692.78;;;-0.44;90.31
70968;BME280;58629;48.808;8.820;2023-01-28T02:05:33;97685.44;;;-0.42;90.02
70968;BME280;58629;48.808;8.820;2023-01-28T02:07:59;97682.16;;;-0.39;90.19
70968;BME280;58629;48.808;8.820;2023-01-28T02:10:45;97685.66;;;-0.35;90.80
70968;BME280;58629;48.808;8.820;2023-01-28T02:13:13;97685.03;;;-0.32;89.86
70968;BME280;58629;48.808;8.820;2023-01-28T02:15:39;97680.44;;;-0.35;89.53
70968;BME280;58629;48.808;8.820;2023-01-28T02:18:04;97683.81;;;-0.35;90.12
70968;BME280;58629;48.808;8.820;2023-01-28T02:20:40;97686.09;;;-0.33;89.73
70968;BME280;58629;48.808;8.820;2023-01-28T02:23:44;97681.00;;;-0.30;90.27
70968;BME280;58629;48.808;8.820;2023-01-28T02:29:21;97678.84;;;-0.28;90.07
70968;BME280;58629;48.808;8.820;2023-01-28T02:32:15;97677.78;;;-0.27;90.17
70968;BME280;58629;48.808;8.820;2023-01-28T02:34:44;97678.53;;;-0.26;89.92
70968;BME280;58629;48.808;8.820;2023-01-28T02:37:15;97689.06;;;-0.23;89.95
70968;BME280;58629;48.808;8.820;2023-01-28T02:39:56;97682.75;;;-0.22;90.33
70968;BME280;58629;48.808;8.820;2023-01-28T02:42:26;97685.34;;;-0.22;89.62
70968;BME280;58629;48.808;8.820;2023-01-28T02:44:53;97687.09;;;-0.26;89.44
70968;BME280;58629;48.808;8.820;2023-01-28T02:47:21;97698.59;;;-0.27;89.61
70968;BME280;58629;48.808;8.820;2023-01-28T02:50:13;97692.63;;;-0.27;89.92
70968;BME280;58629;48.808;8.820;2023-01-28T02:53:07;97698.03;;;-0.32;90.13
70968;BME280;58629;48.808;8.820;2023-01-28T02:56:17;97697.38;;;-0.29;91.02
70968;BME280;58629;48.808;8.820;2023-01-28T02:59:00;97704.41;;;-0.30;91.37
70968;BME280;58629;48.808;8.820;2023-01-28T03:01:47;97700.31;;;-0.31;91.90
70968;BME280;58629;48.808;8.820;2023-01-28T03:04:22;97708.56;;;-0.29;92.21
70968;BME280;58629;48.808;8.820;2023-01-28T03:06:54;97702.03;;;-0.35;92.67
70968;BME280;58629;48.808;8.820;2023-01-28T03:09:24;97705.72;;;-0.36;92.34
70968;BME280;58629;48.808;8.820;2023-01-28T03:12:04;97709.19;;;-0.32;92.84
70968;BME280;58629;48.808;8.820;2023-01-28T03:14:59;97702.91;;;-0.31;92.96
70968;BME280;58629;48.808;8.820;2023-01-28T03:17:45;97701.81;;;-0.30;92.93
70968;BME280;58629;48.808;8.820;2023-01-28T03:20:38;97709.31;;;-0.28;93.15
70968;BME280;58629;48.808;8.820;2023-01-28T03:23:32;97703.69;;;-0.30;93.73
70968;BME280;58629;48.808;8.820;2023-01-28T03:26:23;97705.72;;;-0.36;94.51
70968;BME280;58629;48.808;8.820;2023-01-28T03:29:12;97699.00;;;-0.37;95.29
70968;BME280;58629;48.808;8.820;2023-01-28T03:31:58;97707.13;;;-0.38;95.52
70968;BME280;58629;48.808;8.820;2023-01-28T03:34:43;97710.50;;;-0.38;95.64
70968;BME280;58629;48.808;8.820;2023-01-28T03:37:28;97708.97;;;-0.39;96.01
70968;BME280;58629;48.808;8.820;2023-01-28T03:39:54;97710.78;;;-0.39;96.40
70968;BME280;58629;48.808;8.820;2023-01-28T03:42:22;97715.69;;;-0.38;96.35
70968;BME280;58629;48.808;8.820;2023-01-28T03:44:48;97715.81;;;-0.34;96.96
70968;BME280;58629;48.808;8.820;2023-01-28T03:47:22;97723.63;;;-0.34;96.02
70968;BME280;58629;48.808;8.820;2023-01-28T03:49:50;97719.59;;;-0.32;96.19
70968;BME280;58629;48.808;8.820;2023-01-28T03:52:17;97713.66;;;-0.32;96.96
70968;BME280;58629;48.808;8.820;2023-01-28T03:54:44;97715.91;;;-0.31;96.87
70968;BME280;58629;48.808;8.820;2023-01-28T03:57:15;97713.00;;;-0.29;96.83
70968;BME280;58629;48.808;8.820;2023-01-28T03:59:41;97713.44;;;-0.27;96.58
70968;BME280;58629;48.808;8.820;2023-01-28T04:02:07;97718.44;;;-0.22;97.00
70968;BME280;58629;48.808;8.820;2023-01-28T04:04:34;97715.53;;;-0.21;97.17
70968;BME280;58629;48.808;8.820;2023-01-28T04:07:00;97711.53;;;-0.18;97.66
70968;BME280;58629;48.808;8.820;2023-01-28T04:09:26;97713.34;;;-0.19;97.62
70968;BME280;58629;48.808;8.820;2023-01-28T04:11:52;97710.44;;;-0.17;97.40
70968;BME280;58629;48.808;8.820;2023-01-28T04:14:17;97717.59;;;-0.14;97.89
70968;BME280;58629;48.808;8.820;2023-01-28T04:16:43;97718.91;;;-0.20;97.49
70968;BME280;58629;48.808;8.820;2023-01-28T04:19:09;97726.38;;;-0.19;97.86
70968;BME280;58629;48.808;8.820;2023-01-28T04:21:34;97721.72;;;-0.13;98.10
70968;BME280;58629;48.808;8.820;2023-01-28T04:24:00;97725.28;;;-0.18;97.90
70968;BME280;58629;48.808;8.820;2023-01-28T04:26:26;97727.88;;;-0.18;98.26
70968;BME280;58629;48.808;8.820;2023-01-28T04:28:54;97736.00;;;-0.19;98.27
70968;BME280;58629;48.808;8.820;2023-01-28T04:31:19;97728.31;;;-0.16;98.31
70968;BME280;58629;48.808;8.820;2023-01-28T04:33:44;97737.22;;;-0.17;98.40
70968;BME280;58629;48.808;8.820;2023-01-28T04:36:09;97736.91;;;-0.15;98.80
70968;BME280;58629;48.808;8.820;2023-01-28T04:38:35;97738.72;;;-0.16;98.56
70968;BME280;58629;48.808;8.820;2023-01-28T04:41:00;97739.81;;;-0.17;98.39
70968;BME280;58629;48.808;8.820;2023-01-28T04:43:28;97742.09;;;-0.15;98.08
70968;BME280;58629;48.808;8.820;2023-01-28T04:45:53;97738.63;;;-0.19;98.16
70968;BME280;58629;48.808;8.820;2023-01-28T04:48:18;97735.06;;;-0.15;98.30
70968;BME280;58629;48.808;8.820;2023-01-28T04:50:44;97737.56;;;-0.18;97.67
70968;BME280;58629;48.808;8.820;2023-01-28T04:53:10;97740.00;;;-0.22;98.10
70968;BME280;58629;48.808;8.820;2023-01-28T04:55:35;97740.56;;;-0.28;98.69
70968;BME280;58629;48.808;8.820;2023-01-28T04:58:01;97747.38;;;-0.24;99.10
70968;BME280;58629;48.808;8.820;2023-01-28T05:00:26;97740.22;;;-0.27;98.26
70968;BME280;58629;48.808;8.820;2023-01-28T05:02:51;97748.47;;;-0.25;99.37
70968;BME280;58629;48.808;8.820;2023-01-28T05:05:16;97745.22;;;-0.22;99.72
70968;BME280;58629;48.808;8.820;2023-01-28T05:07:42;97746.75;;;-0.21;99.91
70968;BME280;58629;48.808;8.820;2023-01-28T05:10:08;97748.25;;;-0.20;99.98
70968;BME280;58629;48.808;8.820;2023-01-28T05:12:33;97751.19;;;-0.21;99.78
70968;BME280;58629;48.808;8.820;2023-01-28T05:15:01;97759.31;;;-0.23;99.67
70968;BME280;58629;48.808;8.820;2023-01-28T05:17:29;97760.84;;;-0.22;99.88
70968;BME280;58629;48.808;8.820;2023-01-28T05:19:54;97753.47;;;-0.20;100.00
70968;BME280;58629;48.808;8.820;2023-01-28T05:22:22;97753.59;;;-0.16;100.00
70968;BME280;58629;48.808;8.820;2023-01-28T05:24:47;97753.72;;;-0.13;100.00
70968;BME280;58629;48.808;8.820;2023-01-28T05:27:12;97753.72;;;-0.13;99.77
70968;BME280;58629;48.808;8.820;2023-01-28T05:29:38;97753.59;;;-0.16;99.13
70968;BME280;58629;48.808;8.820;2023-01-28T05:32:03;97756.22;;;-0.16;99.54
70968;BME280;58629;48.808;8.820;2023-01-28T05:34:28;97757.28;;;-0.17;99.90
70968;BME280;58629;48.808;8.820;2023-01-28T05:36:54;97754.34;;;-0.16;99.64
70968;BME280;58629;48.808;8.820;2023-01-28T05:39:19;97756.22;;;-0.16;99.40
70968;BME280;58629;48.808;8.820;2023-01-28T05:41:44;97753.28;;;-0.15;99.48
70968;BME280;58629;48.808;8.820;2023-01-28T05:44:09;97762.47;;;-0.17;99.14
70968;BME280;58629;48.808;8.820;2023-01-28T05:46:35;97766.91;;;-0.18;99.47
70968;BME280;58629;48.808;8.820;2023-01-28T05:49:00;97768.34;;;-0.20;99.42
70968;BME280;58629;48.808;8.820;2023-01-28T05:51:28;97770.94;;;-0.20;99.41
70968;BME280;58629;48.808;8.820;2023-01-28T05:53:53;97771.81;;;-0.16;100.00
70968;BME280;58629;48.808;8.820;2023-01-28T05:56:18;97774.16;;;-0.23;99.76
70968;BME280;58629;48.808;8.820;2023-01-28T05:58:45;97776.00;;;-0.24;100.00
70968;BME280;58629;48.808;8.820;2023-01-28T06:01:11;97768.53;;;-0.25;99.83
70968;BME280;58629;48.808;8.820;2023-01-28T06:03:38;97777.53;;;-0.23;100.00
70968;BME280;58629;48.808;8.820;2023-01-28T06:06:04;97779.38;;;-0.23;100.00
70968;BME280;58629;48.808;8.820;2023-01-28T06:08:29;97785.47;;;-0.19;100.00
70968;BME280;58629;48.808;8.820;2023-01-28T06:10:54;97788.94;;;-0.15;100.00
70968;BME280;58629;48.808;8.820;2023-01-28T06:13:20;97787.88;;;-0.14;100.00
70968;BME280;58629;48.808;8.820;2023-01-28T06:15:48;97788.34;;;-0.12;99.68
70968;BME280;58629;48.808;8.820;2023-01-28T06:18:14;97797.53;;;-0.15;99.29
70968;BME280;58629;48.808;8.820;2023-01-28T06:20:39;97797.97;;;-0.13;99.72
70968;BME280;58629;48.808;8.820;2023-01-28T06:23:05;97808.38;;;-0.13;99.39
70968;BME280;58629;48.808;8.820;2023-01-28T06:25:30;97811.31;;;-0.14;99.49
70968;BME280;58629;48.808;8.820;2023-01-28T06:27:55;97809.78;;;-0.15;99.69
70968;BME280;58629;48.808;8.820;2023-01-28T06:30:20;97807.19;;;-0.15;99.80
70968;BME280;58629;48.808;8.820;2023-01-28T06:32:46;97806.41;;;-0.16;99.46
70968;BME280;58629;48.808;8.820;2023-01-28T06:35:11;97805.00;;;-0.13;99.66
70968;BME280;58629;48.808;8.820;2023-01-28T06:37:36;97805.44;;;-0.11;99.52
70968;BME280;58629;48.808;8.820;2023-01-28T06:40:02;97820.97;;;-0.15;99.05
70968;BME280;58629;48.808;8.820;2023-01-28T06:42:28;97820.97;;;-0.15;98.96
70968;BME280;58629;48.808;8.820;2023-01-28T06:44:53;97822.63;;;-0.10;99.39
70968;BME280;58629;48.808;8.820;2023-01-28T06:47:18;97824.31;;;-0.14;98.72
70968;BME280;58629;48.808;8.820;2023-01-28T06:49:43;97822.16;;;-0.12;99.02
70968;BME280;58629;48.808;8.820;2023-01-28T06:52:11;97819.25;;;-0.11;99.55
70968;BME280;58629;48.808;8.820;2023-01-28T06:54:36;97833.75;;;-0.10;98.80
70968;BME280;58629;48.808;8.820;2023-01-28T06:57:01;97830.09;;;-0.09;98.41
70968;BME280;58629;48.808;8.820;2023-01-28T06:59:27;97824.56;;;-0.07;99.01
70968;BME280;58629;48.808;8.820;2023-01-28T07:01:52;97823.06;;;-0.08;98.17
70968;BME280;58629;48.808;8.820;2023-01-28T07:04:17;97823.16;;;-0.05;98.37
70968;BME280;58629;48.808;8.820;2023-01-28T07:06:42;97825.78;;;-0.05;98.64
70968;BME280;58629;48.808;8.820;2023-01-28T07:09:08;97831.41;;;-0.03;98.75
70968;BME280;58629;48.808;8.820;2023-01-28T07:11:33;97830.53;;;-0.07;98.37
70968;BME280;58629;48.808;8.820;2023-01-28T07:13:58;97830.88;;;-0.08;99.02
70968;BME280;58629;48.808;8.820;2023-01-28T07:16:23;97831.75;;;-0.04;99.34
70968;BME280;58629;48.808;8.820;2023-01-28T07:18:49;97829.78;;;-0.07;98.50
70968;BME280;58629;48.808;8.820;2023-01-28T07:21:15;97832.03;;;-0.06;99.12
70968;BME280;58629;48.808;8.820;2023-01-28T07:23:40;97834.47;;;-0.01;99.22
70968;BME280;58629;48.808;8.820;2023-01-28T07:26:05;97840.44;;;0.00;98.63
70968;BME280;58629;48.808;8.820;2023-01-28T07:28:31;97841.94;;;0.01;98.79
70968;BME280;58629;48.808;8.820;2023-01-28T07:30:59;97843.78;;;0.00;98.88
70968;BME280;58629;48.808;8.820;2023-01-28T07:33:24;97847.16;;;0.01;98.89
70968;BME280;58629;48.808;8.820;2023-01-28T07:35:49;97855.84;;;0.05;99.61
70968;BME280;58629;48.808;8.820;2023-01-28T07:38:14;97856.47;;;0.02;98.87
70968;BME280;58629;48.808;8.820;2023-01-28T07:40:40;97859.09;;;0.02;98.63
70968;BME280;58629;48.808;8.820;2023-01-28T07:43:09;97859.72;;;-0.01;98.56
70968;BME280;58629;48.808;8.820;2023-01-28T07:45:37;97857.47;;;-0.03;99.18
70968;BME280;58629;48.808;8.820;2023-01-28T07:48:07;97858.97;;;-0.02;99.34
70968;BME280;58629;48.808;8.820;2023-01-28T07:50:35;97858.97;;;-0.02;99.10
70968;BME280;58629;48.808;8.820;2023-01-28T07:53:06;97866.34;;;-0.04;98.94
70968;BME280;58629;48.808;8.820;2023-01-28T07:55:34;97866.78;;;-0.02;99.68
70968;BME280;58629;48.808;8.820;2023-01-28T07:58:06;97869.09;;;0.00;99.54
70968;BME280;58629;48.808;8.820;2023-01-28T08:00:33;97872.09;;;0.02;99.76
70968;BME280;58629;48.808;8.820;2023-01-28T08:03:01;97876.25;;;0.03;99.66
70968;BME280;58629;48.808;8.820;2023-01-28T08:05:48;97878.19;;;0.06;100.00
70968;BME280;58629;48.808;8.820;2023-01-28T08:08:14;97878.63;;;0.08;99.43
70968;BME280;58629;48.808;8.820;2023-01-28T08:10:39;97873.31;;;0.05;99.10
70968;BME280;58629;48.808;8.820;2023-01-28T08:13:06;97873.88;;;0.10;99.16
70968;BME280;58629;48.808;8.820;2023-01-28T08:15:34;97885.94;;;0.15;99.15
70968;BME280;58629;48.808;8.820;2023-01-28T08:17:59;97879.97;;;0.14;99.15
70968;BME280;58629;48.808;8.820;2023-01-28T08:20:26;97881.50;;;0.15;99.46
70968;BME280;58629;48.808;8.820;2023-01-28T08:22:51;97880.41;;;0.16;99.57
70968;BME280;58629;48.808;8.820;2023-01-28T08:25:17;97886.81;;;0.19;99.95
70968;BME280;58629;48.808;8.820;2023-01-28T08:27:42;97884.66;;;0.21;100.00
70968;BME280;58629;48.808;8.820;2023-01-28T08:30:08;97883.28;;;0.23;99.54
70968;BME280;58629;48.808;8.820;2023-01-28T08:32:34;97890.19;;;0.19;99.19
70968;BME280;58629;48.808;8.820;2023-01-28T08:35:00;97886.66;;;0.24;99.09
70968;BME280;58629;48.808;8.820;2023-01-28T08:37:28;97885.22;;;0.26;99.23
70968;BME280;58629;48.808;8.820;2023-01-28T08:39:53;97887.19;;;0.29;98.79
70968;BME280;58629;48.808;8.820;2023-01-28T08:42:18;97888.09;;;0.33;98.95
70968;BME280;58629;48.808;8.820;2023-01-28T08:44:44;97887.44;;;0.36;98.62
70968;BME280;58629;48.808;8.820;2023-01-28T08:47:09;97885.72;;;0.40;98.53
70968;BME280;58629;48.808;8.820;2023-01-28T08:49:36;97883.47;;;0.51;99.00
70968;BME280;58629;48.808;8.820;2023-01-28T08:52:02;97887.13;;;0.50;98.00
70968;BME280;58629;48.808;8.820;2023-01-28T08:54:27;97897.81;;;0.57;98.16
70968;BME280;58629;48.808;8.820;2023-01-28T08:56:52;97899.31;;;0.58;97.84
70968;BME280;58629;48.808;8.820;2023-01-28T08:59:18;97895.00;;;0.62;97.82
70968;BME280;58629;48.808;8.820;2023-01-28T09:01:43;97895.25;;;0.69;97.58
70968;BME280;58629;48.808;8.820;2023-01-28T09:04:09;97902.28;;;0.68;97.33
70968;BME280;58629;48.808;8.820;2023-01-28T09:06:34;97895.44;;;0.64;96.32
70968;BME280;58629;48.808;8.820;2023-01-28T09:08:59;97894.91;;;0.70;96.75
70968;BME280;58629;48.808;8.820;2023-01-28T09:11:26;97902.63;;;0.67;95.81
70968;BME280;58629;48.808;8.820;2023-01-28T09:13:51;97903.59;;;0.62;95.16
70968;BME280;58629;48.808;8.820;2023-01-28T09:16:19;97911.41;;;0.62;95.62
70968;BME280;58629;48.808;8.820;2023-01-28T09:18:44;97910.44;;;0.67;96.38
70968;BME280;58629;48.808;8.820;2023-01-28T09:21:10;97914.22;;;0.69;96.36
70968;BME280;58629;48.808;8.820;2023-01-28T09:23:39;97920.09;;;0.66;95.59
70968;BME280;58629;48.808;8.820;2023-01-28T09:26:05;97922.03;;;0.69;96.04
70968;BME280;58629;48.808;8.820;2023-01-28T09:28:31;97916.66;;;0.74;96.17
70968;BME280;58629;48.808;8.820;2023-01-28T09:31:07;97925.88;;;0.72;95.50
70968;BME280;58629;48.808;8.820;2023-01-28T09:33:35;97926.19;;;0.70;95.69
70968;BME280;58629;48.808;8.820;2023-01-28T09:36:02;97926.09;;;0.67;94.77
70968;BME280;58629;48.808;8.820;2023-01-28T09:38:29;97932.63;;;0.73;94.82
70968;BME280;58629;48.808;8.820;2023-01-28T09:40:54;97938.78;;;0.68;94.60
70968;BME280;58629;48.808;8.820;2023-01-28T09:43:43;97935.53;;;0.71;95.52
70968;BME280;58629;48.808;8.820;2023-01-28T09:46:13;97935.97;;;0.73;94.87
70968;BME280;58629;48.808;8.820;2023-01-28T09:48:45;97945.66;;;0.73;94.29
70968;BME280;58629;48.808;8.820;2023-01-28T09:51:35;97946.97;;;0.79;95.05
70968;BME280;58629;48.808;8.820;2023-01-28T09:54:12;97952.03;;;0.75;93.31
70968;BME280;58629;48.808;8.820;2023-01-28T09:56:42;97948.03;;;0.78;94.37
70968;BME280;58629;48.808;8.820;2023-01-28T09:59:16;97946.75;;;0.84;94.20
70968;BME280;58629;48.808;8.820;2023-01-28T10:01:52;97949.69;;;0.82;93.71
70968;BME280;58629;48.808;8.820;2023-01-28T10:04:37;97948.06;;;0.90;94.31
70968;BME280;58629;48.808;8.820;2023-01-28T10:07:24;97953.28;;;0.90;93.62
70968;BME280;58629;48.808;8.820;2023-01-28T10:10:02;97948.63;;;0.96;93.57
70968;BME280;58629;48.808;8.820;2023-01-28T10:12:47;97946.78;;;0.96;93.54
70968;BME280;58629;48.808;8.820;2023-01-28T10:15:32;97946.78;;;0.96;93.16
70968;BME280;58629;48.808;8.820;2023-01-28T10:18:08;97936.25;;;0.93;93.04
70968;BME280;58629;48.808;8.820;2023-01-28T10:20:38;97938.41;;;0.91;92.28
70968;BME280;58629;48.808;8.820;2023-01-28T10:23:23;97943.19;;;0.88;93.39
70968;BME280;58629;48.808;8.820;2023-01-28T10:25:50;97937.84;;;0.85;92.64
70968;BME280;58629;48.808;8.820;2023-01-28T10:28:20;97932.66;;;0.85;93.16
70968;BME280;58629;48.808;8.820;2023-01-28T10:30:48;97932.31;;;0.86;92.87
70968;BME280;58629;48.808;8.820;2023-01-28T10:33:35;97935.03;;;0.90;93.65
70968;BME280;58629;48.808;8.820;2023-01-28T10:36:02;97932.75;;;0.88;93.21
70968;BME280;58629;48.808;8.820;2023-01-28T10:38:29;97924.16;;;0.88;93.73
70968;BME280;58629;48.808;8.820;2023-01-28T10:41:04;97927.97;;;0.91;93.46
70968;BME280;58629;48.808;8.820;2023-01-28T10:43:32;97930.47;;;0.87;93.37
70968;BME280;58629;48.808;8.820;2023-01-28T10:46:10;97927.97;;;0.91;93.79
70968;BME280;58629;48.808;8.820;2023-01-28T10:48:45;97929.81;;;0.90;93.92
70968;BME280;58629;48.808;8.820;2023-01-28T10:51:11;97924.59;;;0.90;93.33
70968;BME280;58629;48.808;8.820;2023-01-28T10:53:44;97928.84;;;0.95;93.43
70968;BME280;58629;48.808;8.820;2023-01-28T10:56:13;97931.91;;;0.97;94.22
70968;BME280;58629;48.808;8.820;2023-01-28T10:58:59;97930.16;;;1.01;94.30
70968;BME280;58629;48.808;8.820;2023-01-28T11:01:38;97928.09;;;0.94;92.79
70968;BME280;58629;48.808;8.820;2023-01-28T11:04:05;97935.38;;;1.01;93.08
70968;BME280;58629;48.808;8.820;2023-01-28T11:06:30;97932.97;;;0.96;92.67
70968;BME280;58629;48.808;8.820;2023-01-28T11:08:56;97939.94;;;1.04;93.94
70968;BME280;58629;48.808;8.820;2023-01-28T11:11:24;97936.13;;;1.01;92.76
70968;BME280;58629;48.808;8.820;2023-01-28T11:13:51;97935.69;;;0.99;93.65
70968;BME280;58629;48.808;8.820;2023-01-28T11:16:18;97930.91;;;1.01;93.14
70968;BME280;58629;48.808;8.820;2023-01-28T11:18:53;97934.63;;;1.00;92.65
70968;BME280;58629;48.808;8.820;2023-01-28T11:21:24;97935.38;;;1.01;93.38
70968;BME280;58629;48.808;8.820;2023-01-28T11:23:54;97933.84;;;1.00;92.55
70968;BME280;58629;48.808;8.820;2023-01-28T11:26:23;97929.84;;;1.02;92.83
70968;BME280;58629;48.808;8.820;2023-01-28T11:28:50;97926.56;;;1.05;92.16
70968;BME280;58629;48.808;8.820;2023-01-28T11:31:18;97929.31;;;1.09;92.55
70968;BME280;58629;48.808;8.820;2023-01-28T11:34:00;97930.91;;;1.01;91.70
70968;BME280;58629;48.808;8.820;2023-01-28T11:36:30;97935.94;;;1.06;91.96
70968;BME280;58629;48.808;8.820;2023-01-28T11:38:58;97932.03;;;1.12;92.83
70968;BME280;58629;48.808;8.820;2023-01-28T11:43:54;97938.00;;;1.13;92.22
70968;BME280;58629;48.808;8.820;2023-01-28T11:49:21;97935.06;;;1.14;92.50
70968;BME280;58629;48.808;8.820;2023-01-28T11:54:57;97934.75;;;1.16;91.15
70968;BME280;58629;48.808;8.820;2023-01-28T11:57:41;97933.88;;;1.12;91.86
70968;BME280;58629;48.808;8.820;2023-01-28T12:00:27;97937.13;;;1.09;91.74
70968;BME280;58629;48.808;8.820;2023-01-28T12:03:10;97934.41;;;1.05;92.42
70968;BME280;58629;48.808;8.820;2023-01-28T12:06:21;97940.38;;;1.06;91.68
70968;BME280;58629;48.808;8.820;2023-01-28T12:08:44;97936.56;;;1.03;92.14
70968;BME280;58629;48.808;8.820;2023-01-28T12:11:32;97937.66;;;1.02;92.14
70968;BME280;58629;48.808;8.820;2023-01-28T12:14:37;97937.84;;;0.97;92.77
70968;BME280;58629;48.808;8.820;2023-01-28T12:17:11;97936.88;;;0.89;92.54
70968;BME280;58629;48.808;8.820;2023-01-28T12:20:23;97943.19;;;0.88;93.67
70968;BME280;58629;48.808;8.820;2023-01-28T12:28:37;97942.50;;;0.79;94.39
70968;BME280;58629;48.808;8.820;2023-01-28T12:36:35;97942.34;;;0.64;95.87
70968;BME280;58629;48.808;8.820;2023-01-28T12:41:59;97944.06;;;0.60;97.77
70968;BME280;58629;48.808;8.820;2023-01-28T12:44:39;97936.97;;;0.48;96.80
70968;BME280;58629;48.808;8.820;2023-01-28T12:47:09;97935.59;;;0.51;97.27
70968;BME280;58629;48.808;8.820;2023-01-28T12:49:42;97933.31;;;0.49;97.20
70968;BME280;58629;48.808;8.820;2023-01-28T12:52:14;97923.00;;;0.53;97.45
70968;BME280;58629;48.808;8.820;2023-01-28T12:54:55;97931.69;;;0.57;98.12
70968;BME280;58629;48.808;8.820;2023-01-28T12:57:32;97931.03;;;0.60;98.71
70968;BME280;58629;48.808;8.820;2023-01-28T13:00:20;97923.22;;;0.60;98.57
70968;BME280;58629;48.808;8.820;2023-01-28T13:03:05;97919.53;;;0.61;97.90
70968;BME280;58629;48.808;8.820;2023-01-28T13:05:37;97919.00;;;0.67;99.01
70968;BME280;58629;48.808;8.820;2023-01-28T13:08:11;97918.69;;;0.69;97.51
70968;BME280;58629;48.808;8.820;2023-01-28T13:10:43;97920.66;;;0.72;97.65
70968;BME280;58629;48.808;8.820;2023-01-28T13:13:33;97924.09;;;0.64;97.55
70968;BME280;58629;48.808;8.820;2023-01-28T13:16:00;97930.09;;;0.64;98.80
70968;BME280;58629;48.808;8.820;2023-01-28T13:20:56;97927.25;;;0.69;98.97
70968;BME280;58629;48.808;8.820;2023-01-28T13:23:46;97929.56;;;0.71;98.80
70968;BME280;58629;48.808;8.820;2023-01-28T13:26:36;97928.47;;;0.72;98.39
70968;BME280;58629;48.808;8.820;2023-01-28T13:31:38;97927.59;;;0.68;99.16
70968;BME280;58629;48.808;8.820;2023-01-28T13:34:05;97932.38;;;0.66;99.01
70968;BME280;58629;48.808;8.820;2023-01-28T13:36:44;97930.41;;;0.63;98.54
70968;BME280;58629;48.808;8.820;2023-01-28T13:46:51;97937.31;;;0.47;98.75
70968;BME280;58629;48.808;8.820;2023-01-28T13:49:21;97938.69;;;0.44;99.08
70968;BME280;58629;48.808;8.820;2023-01-28T13:51:58;97944.25;;;0.43;98.80
70968;BME280;58629;48.808;8.820;2023-01-28T13:54:25;97946.72;;;0.39;99.31
70968;BME280;58629;48.808;8.820;2023-01-28T13:59:43;97944.13;;;0.39;99.84
70968;BME280;58629;48.808;8.820;2023-01-28T14:13:36;97959.22;;;0.46;100.00
70968;BME280;58629;48.808;8.820;2023-01-28T14:18:38;97961.97;;;0.49;99.61